Songa Opal — V7RO5 — position and weather

sailwx.info

Track history (hours):
 
Tides and Currents Weather Stations Pressure Air Temp Water Temp Dewpoint Dewpoint Depression Visibility Wind Speed Wind Dir Waves Ship Positions

Songa Opal

Last reported at 2014-Sep-22 17:32 UTC. Time now 2014-Sep-22 18:17 UTC.
Position N 51°53' E 004°21'.

Length 144 m; draft 8.7 m.

Type: Ship (hazmat cat D). MMSI: 538003550.

Date/timePositionNaut miles runAvg speedWind from/ knotsBaromVisibWave heightAir tempDewpointWater temp
2014-Sep-22 17:32N 51°53' E 004°21'0 0.0
2014-Sep-22 16:32N 51°53' E 004°21'0 0.0
2014-Sep-22 15:32N 51°53' E 004°21'0 0.0
2014-Sep-22 14:32N 51°53' E 004°21'0 0.0
2014-Sep-22 13:32N 51°53' E 004°21'0 0.0
2014-Sep-22 12:32N 51°53' E 004°21'0 0.0
2014-Sep-22 11:32N 51°53' E 004°21'0 0.0
2014-Sep-22 10:20N 51°53' E 004°21'0 0.0
2014-Sep-22 09:32N 51°53' E 004°21'0 0.0
2014-Sep-22 08:32N 51°53' E 004°21'0 0.0
2014-Sep-22 07:32N 51°53' E 004°21'0 0.0
2014-Sep-22 06:32N 51°53' E 004°21'0 0.0
2014-Sep-22 05:33N 51°53' E 004°21'0 0.0
2014-Sep-22 04:32N 51°53' E 004°21'0 0.0
2014-Sep-22 03:32N 51°53' E 004°21'0 0.0
2014-Sep-22 02:32N 51°53' E 004°21'0 0.0
2014-Sep-22 01:23N 51°53' E 004°21'0 0.0
2014-Sep-22 00:32N 51°53' E 004°21'0 0.0
2014-Sep-21 23:32N 51°53' E 004°21'0 0.0
2014-Sep-21 22:32N 51°53' E 004°21'0 0.0
2014-Sep-21 21:29N 51°53' E 004°21'0 0.0
2014-Sep-21 20:32N 51°53' E 004°21'0 0.0
2014-Sep-21 19:32N 51°53' E 004°21'0 0.0
2014-Sep-21 18:32N 51°53' E 004°21'0 0.0
2014-Sep-21 17:32N 51°53' E 004°21'0 0.0
2014-Sep-21 16:26N 51°53' E 004°21'0 0.0
2014-Sep-21 15:32N 51°53' E 004°21'1 1.2
2014-Sep-21 14:33N 51°54' E 004°19'1010.4
2014-Sep-21 13:33N 51°59' E 004°05'1211.5
2014-Sep-21 12:33N 51°60' E 003°46'13 9.2
2014-Sep-21 11:08N 51°56' E 003°26'712.2
2014-Sep-21 10:33N 51°53' E 003°15'2710.9
2014-Sep-21 08:06N 51°43' E 002°34'5 9.8
2014-Sep-21 07:33N 51°39' E 002°29'10 9.6
2014-Sep-21 06:33N 51°32' E 002°19'9 9.0
2014-Sep-21 05:33N 51°25' E 002°09'9 8.8
2014-Sep-21 04:33N 51°17' E 002°06'9 9.2
2014-Sep-21 03:33N 51°11' E 001°55'1010.0
2014-Sep-21 02:33N 51°04' E 001°43'1111.2
2014-Sep-21 01:33N 50°56' E 001°31'3511.8
2014-Sep-20 22:33N 50°29' E 000°55'1212.4
2014-Sep-20 21:33N 50°25' E 000°37'1312.7
2014-Sep-20 20:31N 50°22' E 000°17'4614.4
2014-Sep-20 17:20N 50°10' W 000°52'5213.4
2014-Sep-20 13:29N 49°56' W 002°10'  
2014-Sep-16 08:33N 32°46' W 017°45'1212.3
2014-Sep-16 07:33N 32°35' W 017°52'  
Track history (hours):
 
Tides and Currents Weather Stations Pressure Air Temp Water Temp Dewpoint Dewpoint Depression Visibility Wind Speed Wind Dir Waves Ship Positions

Songa Opal

Last reported at 2014-Sep-22 17:32 UTC. Time now 2014-Sep-22 18:17 UTC.
Position N 51°53' E 004°21'.

Length 144 m; draft 8.7 m.

Type: Ship (hazmat cat D). MMSI: 538003550.

Date/timePositionNaut miles runAvg speedWind from/ knotsBaromVisibWave heightAir tempDewpointWater temp
2014-Sep-22 17:32N 51°53' E 004°21'0 0.0
2014-Sep-22 16:32N 51°53' E 004°21'0 0.0
2014-Sep-22 15:32N 51°53' E 004°21'0 0.0
2014-Sep-22 14:32N 51°53' E 004°21'0 0.0
2014-Sep-22 13:32N 51°53' E 004°21'0 0.0
2014-Sep-22 12:32N 51°53' E 004°21'0 0.0
2014-Sep-22 11:32N 51°53' E 004°21'0 0.0
2014-Sep-22 10:20N 51°53' E 004°21'0 0.0
2014-Sep-22 09:32N 51°53' E 004°21'0 0.0
2014-Sep-22 08:32N 51°53' E 004°21'0 0.0
2014-Sep-22 07:32N 51°53' E 004°21'0 0.0
2014-Sep-22 06:32N 51°53' E 004°21'0 0.0
2014-Sep-22 05:33N 51°53' E 004°21'0 0.0
2014-Sep-22 04:32N 51°53' E 004°21'0 0.0
2014-Sep-22 03:32N 51°53' E 004°21'0 0.0
2014-Sep-22 02:32N 51°53' E 004°21'0 0.0
2014-Sep-22 01:23N 51°53' E 004°21'0 0.0
2014-Sep-22 00:32N 51°53' E 004°21'0 0.0
2014-Sep-21 23:32N 51°53' E 004°21'0 0.0
2014-Sep-21 22:32N 51°53' E 004°21'0 0.0
2014-Sep-21 21:29N 51°53' E 004°21'0 0.0
2014-Sep-21 20:32N 51°53' E 004°21'0 0.0
2014-Sep-21 19:32N 51°53' E 004°21'0 0.0
2014-Sep-21 18:32N 51°53' E 004°21'0 0.0
2014-Sep-21 17:32N 51°53' E 004°21'0 0.0
2014-Sep-21 16:26N 51°53' E 004°21'0 0.0
2014-Sep-21 15:32N 51°53' E 004°21'1 1.2
2014-Sep-21 14:33N 51°54' E 004°19'1010.4
2014-Sep-21 13:33N 51°59' E 004°05'1211.5
2014-Sep-21 12:33N 51°60' E 003°46'13 9.2
2014-Sep-21 11:08N 51°56' E 003°26'712.2
2014-Sep-21 10:33N 51°53' E 003°15'2710.9
2014-Sep-21 08:06N 51°43' E 002°34'5 9.8
2014-Sep-21 07:33N 51°39' E 002°29'10 9.6
2014-Sep-21 06:33N 51°32' E 002°19'9 9.0
2014-Sep-21 05:33N 51°25' E 002°09'9 8.8
2014-Sep-21 04:33N 51°17' E 002°06'9 9.2
2014-Sep-21 03:33N 51°11' E 001°55'1010.0
2014-Sep-21 02:33N 51°04' E 001°43'1111.2
2014-Sep-21 01:33N 50°56' E 001°31'3511.8
2014-Sep-20 22:33N 50°29' E 000°55'1212.4
2014-Sep-20 21:33N 50°25' E 000°37'1312.7
2014-Sep-20 20:31N 50°22' E 000°17'4614.4
2014-Sep-20 17:20N 50°10' W 000°52'5213.4
2014-Sep-20 13:29N 49°56' W 002°10'  
2014-Sep-16 08:33N 32°46' W 017°45'1212.3
2014-Sep-16 07:33N 32°35' W 017°52'  

Dump ship's entire track history